WEATHER DATA

YESTERDAY
Time Temp. Dewp. Hum. Wind dir Wind speed Wind gust Bar. 1h Prec. 24h Prec.
00:04 9.9 4.7 70 90 0.3 0.8 1025.2 0.0000 0.0000
00:24 9.3 4.1 70 135 0.3 0.6 1025.2 0.0000 0.0000
00:34 9.1 4.1 71 90 0.3 0.8 1025.2 0.0000 0.0000
00:44 9 4.2 72 90 0.3 0.6 1025.1 0.0000 0.0000
00:55 8.8 4.2 73 90 0.3 0.8 1025.1 0.0000 0.0000
01:04 8.6 4 73 68 0.6 1.4 1025 0.0000 0.0000
01:14 8.5 4.1 74 72 0.6 0.8 1025 0.0000 0.0000
01:25 8.4 4.2 75 41 0.3 0.6 1025 0.0000 0.0000
01:35 8.3 4.1 75 40 0.3 0.6 1024.9 0.0000 0.0000
01:45 8.2 4.2 76 45 0.3 0.6 1024.9 0.0000 0.0000
01:54 8.1 4.1 76 45 0.3 0.6 1024.8 0.0000 0.0000
02:05 7.9 4.1 77 48 0.3 0.8 1024.7 0.0000 0.0000
02:15 7.9 4.1 77 60 0.6 0.8 1024.6 0.0000 0.0000
02:25 7.8 4.2 78 53 0.6 0.8 1024.4 0.0000 0.0000
02:35 7.7 4.1 78 0 0.6 1024.4 0.0000 0.0000
02:45 7.5 3.7 77 38 0.3 0.6 1024.3 0.0000 0.0000
02:55 7.4 3.8 78 4 0.3 0.6 1024.3 0.0000 0.0000
03:05 7.2 3.6 78 315 0.3 0.6 1024.3 0.0000 0.0000
03:16 7.1 3.5 78 15 0.3 0.6 1024.2 0.0000 0.0000
03:26 6.9 3.5 79 0 0.6 1024 0.0000 0.0000
03:35 6.8 3.4 79 0 0.6 1023.9 0.0000 0.0000
03:46 6.7 3.3 79 326 0.3 0.6 1023.9 0.0000 0.0000
03:56 6.5 3.1 79 0 0.6 1023.9 0.0000 0.0000
04:06 6.4 3 79 48 0.3 0.8 1023.8 0.0000 0.0000
04:16 6.3 3.1 80 36 0.3 0.8 1023.8 0.0000 0.0000
04:26 6.2 3 80 356 0.3 0.6 1023.8 0.0000 0.0000
04:36 6.1 2.9 80 0 0.3 1023.6 0.0000 0.0000
04:46 6.1 2.9 80 53 0.3 0.6 1023.6 0.0000 0.0000
04:56 6 3 81 48 0.3 0.8 1023.6 0.0000 0.0000
05:07 5.9 2.9 81 45 0.3 0.8 1023.5 0.0000 0.0000
05:16 5.8 2.8 81 45 0.3 0.8 1023.5 0.0000 0.0000
05:26 5.8 2.8 81 45 0.3 0.6 1023.4 0.0000 0.0000
05:37 5.9 3.1 82 23 0.3 0.6 1023.4 0.0000 0.0000
05:47 6 3.2 82 25 0.3 0.6 1023.4 0.0000 0.0000
05:57 6.2 3.5 83 61 0.6 0.8 1023.4 0.0000 0.0000
06:07 6.4 3.7 83 45 0.3 0.6 1023.4 0.0000 0.0000
06:17 6.7 4.2 84 27 0.3 0.6 1023.4 0.0000 0.0000
06:27 7.1 4.6 84 20 0.3 0.6 1023.3 0.0000 0.0000
06:37 7.4 5 85 23 0.3 0.6 1023.2 0.0000 0.0000
06:48 7.9 5.5 85 18 0.3 0.6 1023.2 0.0000 0.0000
06:57 8.3 5.9 85 90 0.3 0.6 1023.1 0.0000 0.0000
07:07 8.9 6.7 86 21 0.3 0.6 1023.1 0.0000 0.0000
07:17 9.4 7.2 86 20 0.3 0.6 1023.1 0.0000 0.0000
07:28 10.2 8 86 45 0.3 0.6 1023 0.0000 0.0000
07:38 10.9 8.7 86 45 0.3 0.6 1022.9 0.0000 0.0000
07:47 11.7 9.3 85 18 0.3 0.6 1022.8 0.0000 0.0000
07:58 12.7 9.7 82 315 0.3 0.8 1022.8 0.0000 0.0000
08:08 13.7 9.9 78 203 0.3 0.8 1022.7 0.0000 0.0000
08:18 14.9 10.5 75 306 0.3 0.8 1022.7 0.0000 0.0000
08:28 16 10.5 70 337 0.6 1.7 1022.6 0.0000 0.0000
08:38 17.1 10.2 64 348 0.3 0.8 1022.6 0.0000 0.0000
08:48 18 10.1 60 14 0.3 1.4 1022.6 0.0000 0.0000
08:58 19 10.3 57 270 0.6 1.7 1022.5 0.0000 0.0000
09:09 19.4 10.1 55 270 0.3 1.7 1022.4 0.0000 0.0000
09:19 20 11.2 57 327 0.6 1.7 1022.4 0.0000 0.0000
09:28 20.4 11.6 57 347 0.6 1.4 1022.3 0.0000 0.0000
09:38 20.4 12.4 60 228 0.6 1.7 1022.3 0.0000 0.0000
09:49 21 12.7 59 315 0.6 1.9 1022.2 0.0000 0.0000
09:59 21.2 11.8 55 297 0.6 1.9 1022 0.0000 0.0000
10:09 21.5 11.2 52 295 0.8 2.5 1022 0.0000 0.0000
10:19 21.7 11.7 53 296 0.6 1.7 1022 0.0000 0.0000
10:29 21.9 12.2 54 286 0.8 2.2 1021.9 0.0000 0.0000
10:39 22.2 11.3 50 127 0.6 1.7 1021.8 0.0000 0.0000
10:49 22.6 11 48 7 0.6 1.7 1021.7 0.0000 0.0000
11:00 22.9 11.6 49 36 0.6 1.4 1021.5 0.0000 0.0000
11:10 23.2 12.2 50 327 0.6 1.9 1021.4 0.0000 0.0000
11:19 23.2 11.9 49 270 0.6 2.2 1021.3 0.0000 0.0000
11:30 23.8 11.5 46 27 0.8 2.2 1021.1 0.0000 0.0000
11:40 24.2 11.9 46 25 0.6 1.9 1020.9 0.0000 0.0000
11:50 24.6 11.6 44 47 0.8 2.5 1020.8 0.0000 0.0000
11:59 24.7 12 45 315 0.8 2.5 1020.8 0.0000 0.0000
12:10 24.6 11.9 45 310 0.8 2.5 1020.7 0.0000 0.0000
12:20 24.3 10.9 43 325 1.4 2.5 1020.6 0.0000 0.0000
12:30 24.4 12 46 315 0.3 1.4 1020.5 0.0000 0.0000
12:40 24.4 11.7 45 315 0.6 1.9 1020.4 0.0000 0.0000
12:50 24.9 11.5 43 310 0.8 2.5 1020.3 0.0000 0.0000
13:00 25 10.8 41 302 1.4 2.8 1020.1 0.0000 0.0000
13:10 25.1 11.3 42 315 0.8 2.5 1019.9 0.0000 0.0000
13:21 25.1 12 44 270 0.8 2.8 1019.7 0.0000 0.0000
13:31 25.4 11.6 42 317 0.8 1.9 1019.6 0.0000 0.0000
13:40 25.6 12.1 43 315 0.6 1.9 1019.5 0.0000 0.0000
13:51 25.5 12 43 302 1.4 2.5 1019.3 0.0000 0.0000
14:01 26.1 12.2 42 23 0.8 1.9 1019.2 0.0000 0.0000
14:11 25.8 12.3 43 270 0.6 2.2 1019.1 0.0000 0.0000
14:21 26.3 12.4 42 339 0.6 1.4 1018.9 0.0000 0.0000
14:31 26.5 14.3 47 60 0.8 2.5 1018.7 0.0000 0.0000
14:41 26.5 13.6 45 71 1.4 2.8 1018.6 0.0000 0.0000
14:51 26.3 12.7 43 79 1.9 4.2 1018.5 0.0000 0.0000
15:01 26 12.5 43 76 1.9 3.9 1018.4 0.0000 0.0000
15:12 26 13.5 46 78 1.9 3.1 1018.3 0.0000 0.0000
15:21 25.9 13.1 45 78 1.7 4.4 1018.1 0.0000 0.0000
15:31 25.5 13 46 77 1.9 4.2 1018 0.0000 0.0000
15:42 25.5 12.7 45 74 1.9 3.9 1017.9 0.0000 0.0000
15:52 25.7 12.5 44 63 2.2 4.2 1017.8 0.0000 0.0000
16:02 25.4 13.3 47 67 1.7 3.9 1017.6 0.0000 0.0000
16:12 25.4 12.6 45 83 1.9 4.2 1017.5 0.0000 0.0000
16:22 25.7 11.8 42 65 1.7 3.9 1017.4 0.0000 0.0000
16:32 25.8 12.3 43 77 1.7 4.4 1017.1 0.0000 0.0000
16:42 25.8 13 45 67 1.4 2.8 1017 0.0000 0.0000
16:53 25.4 12.3 44 77 1.9 3.3 1016.8 0.0000 0.0000
17:03 25.4 11.9 43 81 1.9 3.3 1016.6 0.0000 0.0000
17:12 25.4 12.3 44 76 1.7 3.1 1016.5 0.0000 0.0000
17:22 25.2 12.1 44 78 2.2 3.9 1016.5 0.0000 0.0000
17:33 24.9 12.8 47 78 1.9 3.3 1016.4 0.0000 0.0000
17:43 24.7 12 45 81 1.9 4.2 1016.2 0.0000 0.0000
17:53 24.4 13 49 77 1.7 3.9 1016.2 0.0000 0.0000
18:03 24.2 12.5 48 79 1.7 3.3 1016.1 0.0000 0.0000
18:13 24.2 12.2 47 75 1.4 3.1 1016 0.0000 0.0000
18:23 24 12.9 50 72 1.7 3.9 1015.9 0.0000 0.0000
18:33 23.9 13.2 51 67 1.4 3.3 1015.8 0.0000 0.0000
18:44 23.6 12.3 49 73 0.8 1.9 1015.7 0.0000 0.0000
18:54 23.6 13.5 53 53 0.6 2.5 1015.7 0.0000 0.0000
19:03 23.5 12.5 50 59 1.4 2.8 1015.6 0.0000 0.0000
19:14 23.3 12 49 54 0.8 1.9 1015.6 0.0000 0.0000
19:24 23.3 13.2 53 65 0.8 2.2 1015.5 0.0000 0.0000
19:34 23.3 12.6 51 64 0.8 2.5 1015.3 0.0000 0.0000
19:43 23.3 13.5 54 52 0.8 2.5 1015.2 0.0000 0.0000
19:54 23.2 13.1 53 53 0.6 1.9 1015 0.0000 0.0000
20:04 23.1 13.3 54 67 0.6 1.7 1015 0.0000 0.0000
20:14 23.1 13.6 55 61 0.6 1.4 1014.9 0.0000 0.0000
20:24 22.9 13.7 56 72 0.8 1.9 1014.8 0.0000 0.0000
20:34 22.6 13.4 56 68 0.8 1.7 1014.7 0.0000 0.0000
20:44 22 13.1 57 66 0.8 1.7 1014.6 0.0000 0.0000
20:54 21.5 12.9 58 67 1.4 2.2 1014.5 0.0000 0.0000
21:05 20.9 12.9 60 54 0.6 0.8 1014.3 0.0000 0.0000
21:15 20.4 12.6 61 47 0.6 1.4 1014.3 0.0000 0.0000
21:25 19.8 12.6 63 52 0.6 1.4 1014.2 0.0000 0.0000
21:34 19.2 12.2 64 38 0.3 0.8 1014.1 0.0000 0.0000
21:45 18.5 12 66 45 0.3 0.6 1014.1 0.0000 0.0000
21:55 17.9 11.5 66 45 0.3 0.6 1014 0.0000 0.0000
22:05 17.3 11.1 67 60 0.3 0.6 1014 0.0000 0.0000
22:15 16.8 10.6 67 59 0.3 0.6 1014 0.0000 0.0000
22:25 16.3 10.4 68 57 0.3 0.6 1013.9 0.0000 0.0000
22:35 15.7 9.8 68 45 0.3 0.6 1013.8 0.0000 0.0000
22:45 15.3 9.7 69 55 0.3 0.6 1013.7 0.0000 0.0000
22:56 14.9 9.3 69 63 0.6 0.8 1013.5 0.0000 0.0000
23:05 14.5 8.9 69 55 0.3 0.6 1013.4 0.0000 0.0000
23:15 14.1 8.7 70 57 0.3 0.6 1013.3 0.0000 0.0000
23:26 13.8 8.4 70 153 0.3 0.6 1013.2 0.0000 0.0000
23:36 13.4 8.3 71 90 0.3 0.6 1013.1 0.0000 0.0000
23:46 13.1 8.2 72 90 0.3 0.6 1012.9 0.0000 0.0000
23:56 12.8 7.9 72 59 0.3 0.8 1012.9 0.0000

DAY STATISTIC

2020-06-02
TEMPERATURE
AVERAGE
17.4
HIGH
26.5
14:31
LOW
5.8
05:16
PRESSURE
AVERAGE
1019.9
HIGH
1025.2
00:04
LOW
1012.9
23:46
DEWPOINT
AVERAGE
9.3
HIGH
14.3
14:31
LOW
2.8
05:16
HUMIDITY
AVERAGE
62
HIGH
86
07:07
LOW
41
13:00
WIND SPEED
AVERAGE
0.7
HIGH
2.2
15:52
WIND GUST
AVERAGE
1.7
HIGH
4.4
15:21
WIND DIRECTION
PREVAILING
NE
42.3%
N
9.2
NE
42.3
E
21.8
SE
2.1
S
0.7
SW
0.7
W
4.2
NW
15.5
PRECIPITATION
RAIN HOUR
0.0
RAIN DAY
0.0
TEMPERATURE (°C)
LOW
5.8
HIGH
26.5
AVERAGE
17.4
PRESSURE (hpa)
LOW
1012.9
HIGH
1025.2
AVERAGE
1019.9
DEVICE